Time;durP1;ratioP1;P1;durP2;ratioP2;P2;SDS_P1;SDS_P2;PMS_P1;PMS_P2;Temp;Humidity;BMP_temperature;BMP_pressure;BME280_temperature;BME280_humidity;BME280_pressure;Samples;Min_cycle;Max_cycle;Signal;HPM_P1;HPM_P2
2022/07/01 00:02:07;;;;;;;3.45;1.30;;;16.90;99.90;;;;;;5033030;28;20507;-63
2022/07/01 00:04:32;;;;;;;3.03;0.90;;;16.80;99.90;;;;;;5025160;28;20083;-66
2022/07/01 00:06:58;;;;;;;2.55;1.20;;;16.70;99.90;;;;;;5026964;28;20041;-62
2022/07/01 00:09:24;;;;;;;2.17;1.10;;;16.70;99.90;;;;;;5030422;28;20029;-65
2022/07/01 00:11:50;;;;;;;2.13;1.05;;;16.70;99.90;;;;;;5023492;28;20512;-65
2022/07/01 00:14:16;;;;;;;2.15;1.00;;;16.70;99.90;;;;;;5025289;28;20033;-64
2022/07/01 00:16:41;;;;;;;1.95;1.00;;;16.60;99.90;;;;;;5014871;28;20127;-63
2022/07/01 00:19:07;;;;;;;2.63;1.02;;;16.60;99.90;;;;;;5026612;28;20117;-65
2022/07/01 00:21:34;;;;;;;1.98;1.10;;;16.60;99.90;;;;;;5029775;28;20060;-65
2022/07/01 00:23:59;;;;;;;0.82;0.80;;;16.60;99.90;;;;;;5018541;28;20548;-65
2022/07/01 00:26:25;;;;;;;1.73;0.90;;;16.60;99.90;;;;;;5021948;28;20049;-65
2022/07/01 00:28:50;;;;;;;1.45;0.82;;;16.60;99.90;;;;;;5036054;28;20435;-65
2022/07/01 00:31:16;;;;;;;2.17;1.00;;;16.50;99.90;;;;;;5032169;28;20053;-65
2022/07/01 00:33:42;;;;;;;1.65;0.90;;;16.50;99.90;;;;;;5028383;28;20025;-63
2022/07/01 00:36:07;;;;;;;4.00;1.00;;;16.40;99.90;;;;;;5013430;28;20084;-65
2022/07/01 00:38:33;;;;;;;1.58;1.15;;;16.40;99.90;;;;;;5020234;28;20045;-66
2022/07/01 00:40:59;;;;;;;0.77;0.77;;;16.30;99.90;;;;;;5036880;28;20462;-65
2022/07/01 00:43:25;;;;;;;1.55;0.85;;;16.30;99.90;;;;;;5025259;28;20057;-65
2022/07/01 00:45:52;;;;;;;2.42;1.02;;;16.30;99.90;;;;;;5014576;28;20043;-65
2022/07/01 00:48:20;;;;;;;1.17;0.98;;;16.30;99.90;;;;;;5023777;28;20103;-65
2022/07/01 00:50:46;;;;;;;2.95;1.27;;;16.30;99.90;;;;;;5038576;28;20052;-63
2022/07/01 00:53:13;;;;;;;2.60;1.20;;;16.30;99.90;;;;;;5027509;28;20030;-65
2022/07/01 00:55:40;;;;;;;2.05;1.10;;;16.40;99.90;;;;;;5021104;28;20055;-64
2022/07/01 00:58:07;;;;;;;1.95;1.15;;;16.40;99.90;;;;;;5018477;28;20057;-65
2022/07/01 01:00:32;;;;;;;2.03;1.40;;;16.40;99.90;;;;;;5018459;28;20037;-65
2022/07/01 01:02:58;;;;;;;2.42;1.20;;;16.50;99.90;;;;;;5024877;28;20034;-65
2022/07/01 01:05:25;;;;;;;2.30;1.27;;;16.50;99.90;;;;;;5026729;28;20481;-65
2022/07/01 01:07:50;;;;;;;2.13;1.52;;;16.50;99.90;;;;;;5023511;28;20095;-65
2022/07/01 01:10:17;;;;;;;2.03;1.40;;;16.50;99.90;;;;;;5024227;28;20096;-65
2022/07/01 01:12:43;;;;;;;2.58;1.48;;;16.50;99.90;;;;;;5032938;28;20049;-65
2022/07/01 01:15:10;;;;;;;1.60;1.50;;;16.50;99.90;;;;;;5023093;28;20048;-65
2022/07/01 01:17:36;;;;;;;2.65;1.83;;;16.50;99.90;;;;;;5024682;28;20050;-65
2022/07/01 01:20:02;;;;;;;3.67;2.97;;;16.50;99.90;;;;;;5020276;28;20053;-65
2022/07/01 01:22:27;;;;;;;8.85;4.95;;;16.50;99.90;;;;;;5024116;28;20037;-65
2022/07/01 01:24:53;;;;;;;10.45;8.00;;;16.60;99.90;;;;;;5027791;28;20041;-63
2022/07/01 01:27:19;;;;;;;12.32;10.68;;;16.50;99.90;;;;;;5026216;28;20575;-65
2022/07/01 01:29:45;;;;;;;15.38;13.55;;;16.50;99.90;;;;;;5019091;28;20136;-65
2022/07/01 01:32:10;;;;;;;16.25;14.32;;;16.60;99.90;;;;;;5023058;28;20072;-64
2022/07/01 01:34:38;;;;;;;17.55;15.65;;;16.50;99.90;;;;;;5031258;28;20514;-65
2022/07/01 01:37:05;;;;;;;18.92;15.13;;;16.50;99.90;;;;;;5029622;28;20041;-64
2022/07/01 01:39:31;;;;;;;20.27;15.93;;;16.50;99.90;;;;;;5029216;28;20495;-66
2022/07/01 01:41:57;;;;;;;18.08;15.27;;;16.50;99.90;;;;;;5026325;28;20041;-65
2022/07/01 01:44:22;;;;;;;16.92;14.45;;;16.50;99.90;;;;;;5026419;28;20028;-65
2022/07/01 01:46:48;;;;;;;16.05;14.25;;;16.40;99.90;;;;;;5018987;28;20141;-64
2022/07/01 01:49:14;;;;;;;18.48;13.25;;;16.40;99.90;;;;;;5030892;28;20033;-65
2022/07/01 01:51:40;;;;;;;20.10;14.38;;;16.40;99.90;;;;;;5022807;28;20049;-65
2022/07/01 01:54:06;;;;;;;14.93;11.73;;;16.30;99.90;;;;;;5024731;28;20497;-65
2022/07/01 01:56:31;;;;;;;16.73;11.63;;;16.30;99.90;;;;;;5035610;28;20112;-65
2022/07/01 01:58:58;;;;;;;15.43;11.35;;;16.20;99.90;;;;;;5026730;28;20120;-66
2022/07/01 02:01:24;;;;;;;13.32;10.75;;;16.20;99.90;;;;;;5032677;28;20041;-65
2022/07/01 02:03:51;;;;;;;15.77;10.75;;;16.20;99.90;;;;;;5032210;28;20519;-65
2022/07/01 02:06:19;;;;;;;13.10;9.88;;;16.20;99.90;;;;;;5030157;28;20179;-65
2022/07/01 02:08:45;;;;;;;14.57;9.98;;;16.20;99.90;;;;;;5018585;28;20454;-64
2022/07/01 02:11:11;;;;;;;15.07;9.75;;;16.10;99.90;;;;;;5021153;28;20412;-65
2022/07/01 02:13:38;;;;;;;11.68;9.27;;;16.10;99.90;;;;;;5030294;28;20034;-65
2022/07/01 02:16:04;;;;;;;15.88;10.23;;;16.00;99.90;;;;;;5029924;28;20125;-64
2022/07/01 02:18:30;;;;;;;13.18;9.45;;;16.00;99.90;;;;;;5023642;28;20046;-63
2022/07/01 02:20:56;;;;;;;14.48;10.45;;;16.00;99.90;;;;;;5026339;28;20037;-65
2022/07/01 02:23:22;;;;;;;13.07;10.15;;;16.00;99.90;;;;;;5028986;28;20034;-65
2022/07/01 02:25:48;;;;;;;12.90;9.75;;;15.90;99.90;;;;;;5027700;28;20036;-65
2022/07/01 02:28:13;;;;;;;12.55;9.52;;;15.90;99.90;;;;;;5025779;28;20127;-65
2022/07/01 02:30:39;;;;;;;12.52;9.70;;;15.90;99.90;;;;;;5025888;28;20029;-64
2022/07/01 02:33:06;;;;;;;12.10;9.32;;;15.90;99.90;;;;;;5027443;28;20040;-66
2022/07/01 02:35:33;;;;;;;13.05;9.65;;;15.80;99.90;;;;;;5000261;28;20044;-65
2022/07/01 02:37:59;;;;;;;12.82;8.65;;;15.80;99.90;;;;;;5026263;28;20567;-65
2022/07/01 02:40:25;;;;;;;10.07;7.78;;;15.80;99.90;;;;;;5022257;28;20052;-64
2022/07/01 02:42:51;;;;;;;11.90;8.18;;;15.80;99.90;;;;;;5020356;28;20034;-65
2022/07/01 02:45:16;;;;;;;10.70;7.63;;;15.70;99.90;;;;;;5019866;28;20041;-65
2022/07/01 02:47:44;;;;;;;11.25;8.05;;;15.70;99.90;;;;;;5022849;28;20488;-65
2022/07/01 02:50:12;;;;;;;9.20;7.28;;;15.80;99.90;;;;;;5027722;28;20052;-65
2022/07/01 02:52:39;;;;;;;11.10;7.68;;;15.70;99.90;;;;;;5025515;28;20041;-64
2022/07/01 02:55:07;;;;;;;12.55;8.65;;;15.70;99.90;;;;;;5023822;28;20049;-65
2022/07/01 02:57:33;;;;;;;10.98;8.23;;;15.70;99.90;;;;;;5018454;28;20042;-65
2022/07/01 02:59:59;;;;;;;11.60;8.35;;;15.60;99.90;;;;;;5018194;28;20370;-65
2022/07/01 03:02:24;;;;;;;12.15;8.63;;;15.60;99.90;;;;;;5023453;28;20459;-65
2022/07/01 03:04:52;;;;;;;13.18;9.95;;;15.60;99.90;;;;;;5030162;28;20103;-64
2022/07/01 03:07:18;;;;;;;16.25;10.85;;;15.60;99.90;;;;;;5030876;28;20423;-65
2022/07/01 03:09:44;;;;;;;15.95;11.70;;;15.60;99.90;;;;;;5023614;28;20042;-64
2022/07/01 03:12:30;;;;;;;14.93;11.88;;;15.60;99.90;;;;;;5023708;28;20523;-65
2022/07/01 03:15:09;;;;;;;18.23;13.15;;;15.60;99.90;;;;;;5022337;28;20122;-65
2022/07/01 03:17:38;;;;;;;18.55;13.63;;;15.50;99.90;;;;;;5018526;28;20416;-65
2022/07/01 03:20:05;;;;;;;19.88;13.90;;;15.50;99.90;;;;;;5017036;28;20038;-65
2022/07/01 03:22:32;;;;;;;18.17;13.75;;;15.50;99.90;;;;;;5030408;28;20104;-65
2022/07/01 03:24:58;;;;;;;18.30;14.35;;;15.50;99.90;;;;;;5020132;28;20104;-65
2022/07/01 03:27:25;;;;;;;20.33;15.20;;;15.50;99.90;;;;;;5025421;28;20046;-65
2022/07/01 03:29:51;;;;;;;19.42;14.90;;;15.60;99.90;;;;;;5017122;28;20037;-65
2022/07/01 03:32:20;;;;;;;21.80;15.88;;;15.50;99.90;;;;;;5026563;28;20045;-64
2022/07/01 03:34:48;;;;;;;21.42;16.08;;;15.50;99.90;;;;;;5021811;28;20120;-64
2022/07/01 03:37:16;;;;;;;20.58;16.88;;;15.50;99.90;;;;;;5021574;28;20492;-65
2022/07/01 03:39:42;;;;;;;21.00;17.33;;;15.50;99.90;;;;;;5025389;28;20073;-65
2022/07/01 03:42:09;;;;;;;22.30;17.42;;;15.50;99.90;;;;;;5026046;28;20033;-65
2022/07/01 03:44:35;;;;;;;22.73;17.92;;;15.50;99.90;;;;;;5025378;28;20041;-65
2022/07/01 03:47:02;;;;;;;22.75;17.85;;;15.50;99.90;;;;;;5024211;28;20388;-63
2022/07/01 03:49:27;;;;;;;24.67;16.98;;;15.50;99.90;;;;;;5026692;28;20034;-65
2022/07/01 03:51:54;;;;;;;22.02;18.10;;;15.60;99.90;;;;;;5028063;28;20048;-63
2022/07/01 03:54:38;;;;;;;24.25;18.92;;;15.60;99.90;;;;;;5013925;28;20040;-63
2022/07/01 03:57:09;;;;;;;25.83;18.85;;;15.60;99.90;;;;;;5023435;28;20381;-65
2022/07/01 03:59:40;;;;;;;23.63;18.15;;;15.50;99.90;;;;;;5018528;28;20050;-62
2022/07/01 04:02:06;;;;;;;25.52;19.05;;;15.50;99.90;;;;;;5017441;28;20076;-65
2022/07/01 04:04:33;;;;;;;23.27;18.38;;;15.50;99.90;;;;;;5017336;28;20046;-65
2022/07/01 04:07:01;;;;;;;26.17;18.67;;;15.50;99.90;;;;;;5028561;28;20048;-65
2022/07/01 04:09:28;;;;;;;25.38;19.63;;;15.50;99.90;;;;;;5025519;28;20090;-65
2022/07/01 04:11:54;;;;;;;24.92;19.17;;;15.50;99.90;;;;;;5018336;28;20036;-64
2022/07/01 04:14:20;;;;;;;27.08;19.73;;;15.50;99.90;;;;;;5019768;28;20045;-65
2022/07/01 04:16:46;;;;;;;24.33;18.85;;;15.50;99.90;;;;;;5011397;28;20038;-63
2022/07/01 04:19:14;;;;;;;25.02;19.38;;;15.50;99.90;;;;;;5017516;28;20037;-64
2022/07/01 04:24:24;;;;;;;24.33;19.75;;;15.50;99.90;;;;;;5014965;28;20042;-65
2022/07/01 04:26:53;;;;;;;26.40;19.77;;;15.50;99.90;;;;;;5022409;28;20034;-65
2022/07/01 04:29:19;;;;;;;25.23;19.80;;;15.50;99.90;;;;;;5026497;28;20052;-64
2022/07/01 04:31:45;;;;;;;24.92;20.35;;;15.50;99.90;;;;;;5016202;28;20042;-65
2022/07/01 04:34:11;;;;;;;28.00;21.35;;;15.50;99.90;;;;;;5023743;28;20029;-64
2022/07/01 04:36:37;;;;;;;29.42;21.80;;;15.40;99.90;;;;;;5020113;28;20096;-64
2022/07/01 04:39:04;;;;;;;27.33;22.02;;;15.40;99.90;;;;;;5018541;28;20041;-65
2022/07/01 04:44:14;;;;;;;27.90;22.52;;;15.40;99.90;;;;;;5025660;28;20041;-65
2022/07/01 04:46:40;;;;;;;28.55;22.23;;;15.40;99.90;;;;;;5015541;28;20046;-65
2022/07/01 04:49:06;;;;;;;26.73;22.20;;;15.40;99.90;;;;;;5020305;28;20083;-65
2022/07/01 04:51:34;;;;;;;28.58;22.75;;;15.40;99.90;;;;;;5021149;28;20067;-66
2022/07/01 04:54:01;;;;;;;33.15;24.33;;;15.40;99.90;;;;;;5014433;28;20030;-65
2022/07/01 04:56:28;;;;;;;32.00;23.65;;;15.40;99.90;;;;;;5031722;28;20038;-65
2022/07/01 04:58:55;;;;;;;32.45;23.30;;;15.50;99.90;;;;;;5022518;28;20037;-65
2022/07/01 05:01:20;;;;;;;28.75;22.42;;;15.40;99.90;;;;;;5018071;28;20104;-65
2022/07/01 05:03:46;;;;;;;29.55;23.33;;;15.40;99.90;;;;;;5026900;28;20049;-66
2022/07/01 05:06:11;;;;;;;33.28;24.85;;;15.40;99.90;;;;;;5020528;28;20046;-65
2022/07/01 05:08:37;;;;;;;32.85;24.73;;;15.40;99.90;;;;;;5032583;28;20029;-65
2022/07/01 05:11:03;;;;;;;30.83;24.33;;;15.40;99.90;;;;;;5030610;28;20045;-66
2022/07/01 05:13:28;;;;;;;31.30;24.88;;;15.30;99.90;;;;;;5026386;28;20042;-65
2022/07/01 05:15:54;;;;;;;32.13;23.98;;;15.30;99.90;;;;;;5020829;28;20511;-64
2022/07/01 05:23:48;;;;;;;31.20;24.02;;;15.20;99.90;;;;;;5023186;28;20037;-65
2022/07/01 05:26:17;;;;;;;30.42;24.30;;;15.20;99.90;;;;;;5030621;28;20538;-64
2022/07/01 05:28:44;;;;;;;28.27;23.10;;;15.20;99.90;;;;;;5014692;28;20050;-65
2022/07/01 05:31:10;;;;;;;29.42;24.00;;;15.20;99.90;;;;;;5024383;28;20129;-66
2022/07/01 05:33:35;;;;;;;32.85;23.55;;;15.30;99.90;;;;;;5030336;28;20622;-65
2022/07/01 05:36:01;;;;;;;29.42;23.10;;;15.30;99.90;;;;;;5028248;28;20038;-65
2022/07/01 05:38:27;;;;;;;30.83;23.23;;;15.30;99.90;;;;;;5027263;28;20542;-65
2022/07/01 05:40:53;;;;;;;31.73;23.45;;;15.30;99.90;;;;;;5028798;28;20025;-65
2022/07/01 05:43:19;;;;;;;29.10;24.35;;;15.30;99.90;;;;;;5029850;28;20045;-64
2022/07/01 05:45:45;;;;;;;31.55;23.90;;;15.40;99.90;;;;;;5029811;28;20199;-65
2022/07/01 05:48:11;;;;;;;28.27;22.85;;;15.30;99.90;;;;;;5026553;28;20044;-66
2022/07/01 05:50:37;;;;;;;30.13;23.63;;;15.30;99.90;;;;;;5022639;28;20042;-65
2022/07/01 05:53:02;;;;;;;29.90;23.70;;;15.30;99.90;;;;;;5027798;28;20069;-63
2022/07/01 05:55:28;;;;;;;32.33;25.10;;;15.30;99.90;;;;;;5027435;28;20139;-65
2022/07/01 05:57:54;;;;;;;33.33;25.90;;;15.30;99.90;;;;;;5021390;28;20049;-65
2022/07/01 06:00:20;;;;;;;30.33;24.60;;;15.30;99.90;;;;;;5020850;28;20052;-65
2022/07/01 06:02:46;;;;;;;30.92;24.00;;;15.30;99.90;;;;;;5030050;28;20041;-65
2022/07/01 06:05:13;;;;;;;30.92;23.92;;;15.20;99.90;;;;;;5019325;28;20046;-65
2022/07/01 06:07:40;;;;;;;32.30;24.08;;;15.20;99.90;;;;;;5021343;28;20373;-64
2022/07/01 06:10:07;;;;;;;31.88;23.63;;;15.20;99.90;;;;;;5031244;28;20045;-65
2022/07/01 06:12:33;;;;;;;32.60;25.10;;;15.20;99.90;;;;;;5032418;28;20113;-65
2022/07/01 06:14:58;;;;;;;32.20;25.50;;;15.30;99.90;;;;;;5022291;28;20045;-65
2022/07/01 06:17:24;;;;;;;34.55;24.80;;;15.20;99.90;;;;;;5034884;28;20049;-65
2022/07/01 06:19:50;;;;;;;32.08;25.55;;;15.30;99.90;;;;;;5030778;28;20120;-65
2022/07/01 06:22:17;;;;;;;29.10;24.02;;;15.30;99.90;;;;;;5029109;28;20090;-62
2022/07/01 06:24:44;;;;;;;30.45;24.15;;;15.40;99.90;;;;;;5031135;28;20056;-62
2022/07/01 06:27:11;;;;;;;30.77;24.08;;;15.40;99.90;;;;;;5026719;28;20041;-64
2022/07/01 06:29:36;;;;;;;32.10;24.38;;;15.40;99.90;;;;;;5028389;28;20547;-65
2022/07/01 06:32:04;;;;;;;30.38;22.90;;;15.40;99.90;;;;;;5033866;28;20080;-65
2022/07/01 06:34:29;;;;;;;30.52;22.65;;;15.40;99.90;;;;;;5020648;28;20056;-64
2022/07/01 06:36:55;;;;;;;32.92;24.80;;;15.40;99.90;;;;;;5034320;28;20037;-65
2022/07/01 06:39:21;;;;;;;28.15;22.95;;;15.50;99.90;;;;;;5029227;28;20432;-65
2022/07/01 06:41:47;;;;;;;31.25;23.65;;;15.50;99.90;;;;;;5024356;28;20042;-65
2022/07/01 06:44:13;;;;;;;30.42;24.33;;;15.50;99.90;;;;;;5027938;28;20040;-65
2022/07/01 06:46:39;;;;;;;32.22;23.77;;;15.60;99.90;;;;;;5030087;28;20069;-65
2022/07/01 06:49:04;;;;;;;30.17;23.60;;;15.60;99.90;;;;;;5033097;28;20488;-65
2022/07/01 06:51:30;;;;;;;32.65;24.00;;;15.60;99.90;;;;;;5027869;28;20049;-63
2022/07/01 06:53:57;;;;;;;31.30;24.63;;;15.60;99.90;;;;;;5031226;28;20069;-66
2022/07/01 06:56:22;;;;;;;31.17;23.58;;;15.60;99.90;;;;;;5022473;28;20484;-64
2022/07/01 06:58:48;;;;;;;33.03;23.95;;;15.70;99.90;;;;;;5017673;28;20050;-65
2022/07/01 07:01:14;;;;;;;30.38;23.92;;;15.70;99.90;;;;;;5028386;28;20292;-65
2022/07/01 07:03:39;;;;;;;33.05;24.52;;;15.70;99.90;;;;;;5031318;28;20041;-65
2022/07/01 07:06:05;;;;;;;30.42;24.63;;;15.70;99.90;;;;;;5024581;28;20033;-65
2022/07/01 07:08:32;;;;;;;30.85;24.15;;;15.80;99.90;;;;;;5024251;28;20084;-63
2022/07/01 07:10:58;;;;;;;30.58;24.48;;;15.80;99.90;;;;;;5027336;28;20132;-63
2022/07/01 07:13:24;;;;;;;30.33;24.15;;;15.80;99.90;;;;;;5027081;28;20469;-65
2022/07/01 07:15:50;;;;;;;29.33;23.92;;;15.90;99.90;;;;;;5024095;28;20108;-65
2022/07/01 07:18:16;;;;;;;33.10;23.42;;;15.90;99.90;;;;;;5028225;28;20499;-65
2022/07/01 07:20:42;;;;;;;31.63;24.38;;;15.90;99.90;;;;;;5030033;28;20072;-64
2022/07/01 07:23:07;;;;;;;29.83;23.70;;;16.00;99.90;;;;;;5034929;28;20037;-65
2022/07/01 07:25:33;;;;;;;29.77;23.52;;;16.10;99.90;;;;;;5026518;28;20401;-64
2022/07/01 07:27:59;;;;;;;29.25;21.80;;;16.10;99.90;;;;;;5022653;28;20038;-65
2022/07/01 07:30:25;;;;;;;30.88;22.40;;;16.20;99.90;;;;;;5017637;28;20199;-65
2022/07/01 07:32:50;;;;;;;29.75;21.98;;;16.10;99.90;;;;;;5014251;28;20042;-65
2022/07/01 07:35:16;;;;;;;28.33;22.63;;;16.20;99.90;;;;;;5030229;28;20380;-65
2022/07/01 07:37:42;;;;;;;29.45;22.05;;;16.30;99.90;;;;;;5021937;28;20512;-65
2022/07/01 07:40:09;;;;;;;28.40;20.73;;;16.30;99.90;;;;;;5028378;28;20029;-65
2022/07/01 07:42:40;;;;;;;28.77;21.10;;;16.30;99.90;;;;;;5022270;28;20099;-65
2022/07/01 07:45:07;;;;;;;27.58;21.85;;;16.40;99.90;;;;;;5028022;28;20048;-64
2022/07/01 07:47:36;;;;;;;29.08;21.55;;;16.40;99.90;;;;;;5023276;28;20045;-65
2022/07/01 07:50:02;;;;;;;27.50;21.98;;;16.40;99.90;;;;;;5028859;28;20056;-64
2022/07/01 07:52:29;;;;;;;28.33;20.95;;;16.50;99.90;;;;;;5030556;28;20060;-65
2022/07/01 07:54:54;;;;;;;25.70;20.63;;;16.60;99.90;;;;;;5022993;28;20463;-64
2022/07/01 07:57:20;;;;;;;29.92;21.67;;;16.60;99.90;;;;;;5021576;28;20124;-65
2022/07/01 07:59:46;;;;;;;28.30;20.67;;;16.70;99.90;;;;;;5024182;28;20091;-65
2022/07/01 08:02:12;;;;;;;25.25;20.58;;;16.80;99.90;;;;;;5023949;28;20053;-63
2022/07/01 08:04:38;;;;;;;28.02;20.63;;;16.80;99.90;;;;;;5019690;28;20053;-64
2022/07/01 08:07:03;;;;;;;24.48;19.33;;;16.90;99.90;;;;;;5021578;28;20435;-65
2022/07/01 08:09:29;;;;;;;24.15;18.83;;;17.00;99.90;;;;;;5022693;28;20480;-65
2022/07/01 08:11:55;;;;;;;23.45;18.42;;;17.00;99.90;;;;;;5015705;28;20516;-65
2022/07/01 08:14:23;;;;;;;26.55;17.75;;;17.10;99.90;;;;;;5024892;28;20088;-63
2022/07/01 08:16:48;;;;;;;27.02;19.42;;;17.10;99.90;;;;;;5018457;28;20037;-65
2022/07/01 08:19:14;;;;;;;26.13;18.42;;;17.10;99.90;;;;;;5017401;28;20440;-65
2022/07/01 08:21:40;;;;;;;22.77;17.58;;;17.10;99.90;;;;;;5027769;28;20040;-65
2022/07/01 08:24:06;;;;;;;21.33;16.27;;;17.10;99.90;;;;;;5020826;28;20037;-64
2022/07/01 08:26:31;;;;;;;26.90;17.05;;;17.10;99.90;;;;;;5028290;28;20049;-65
2022/07/01 08:28:57;;;;;;;21.67;16.02;;;17.20;99.90;;;;;;5027252;28;20049;-65
2022/07/01 08:31:22;;;;;;;21.58;15.50;;;17.30;99.90;;;;;;5021077;28;20030;-65
2022/07/01 08:33:48;;;;;;;21.23;15.88;;;17.40;99.90;;;;;;5025054;28;20077;-63
2022/07/01 08:36:14;;;;;;;23.05;15.70;;;17.40;99.90;;;;;;5020750;28;20088;-65
2022/07/01 08:38:40;;;;;;;22.67;15.30;;;17.40;99.90;;;;;;5024057;28;20038;-65
2022/07/01 08:41:05;;;;;;;24.23;14.23;;;17.60;99.90;;;;;;5024924;28;20033;-65
2022/07/01 08:43:31;;;;;;;22.20;14.90;;;17.70;99.90;;;;;;5012952;28;20037;-64
2022/07/01 08:46:01;;;;;;;22.13;14.52;;;17.90;99.90;;;;;;5025044;28;20411;-66
2022/07/01 08:48:28;;;;;;;19.08;13.48;;;18.10;99.90;;;;;;5019958;28;20081;-65
2022/07/01 08:50:53;;;;;;;21.88;13.18;;;18.10;99.90;;;;;;5024223;28;20046;-64
2022/07/01 08:53:19;;;;;;;24.42;13.45;;;18.20;99.90;;;;;;5016415;28;20062;-65
2022/07/01 08:58:29;;;;;;;20.23;13.38;;;18.20;99.90;;;;;;5025094;28;20037;-63
2022/07/01 09:01:25;;;;;;;18.83;12.65;;;18.20;99.90;;;;;;5020698;28;20049;-63
2022/07/01 09:03:52;;;;;;;22.48;13.05;;;18.20;99.90;;;;;;5011358;28;20042;-63
2022/07/01 09:06:23;;;;;;;18.05;13.65;;;18.20;99.90;;;;;;5028366;28;20119;-64
2022/07/01 09:08:49;;;;;;;20.13;12.30;;;18.20;99.90;;;;;;5023117;28;20050;-63
2022/07/01 09:11:16;;;;;;;15.18;10.13;;;18.20;99.90;;;;;;5032832;28;20110;-63
2022/07/01 09:13:42;;;;;;;13.75;9.23;;;18.40;99.90;;;;;;5038278;28;20053;-65
2022/07/01 09:16:16;;;;;;;15.88;9.30;;;18.80;99.90;;;;;;5024972;28;20590;-64
2022/07/01 09:19:03;;;;;;;14.25;8.82;;;19.00;99.90;;;;;;5027692;28;20087;-63
2022/07/01 09:21:30;;;;;;;11.57;8.48;;;18.90;99.90;;;;;;5028964;28;20048;-63
2022/07/01 09:23:56;;;;;;;13.15;7.63;;;18.90;99.90;;;;;;5031747;28;20061;-63
2022/07/01 09:26:22;;;;;;;11.82;7.35;;;18.90;99.90;;;;;;5021786;28;20030;-63
2022/07/01 09:28:57;;;;;;;9.35;6.75;;;18.90;99.90;;;;;;5031985;28;20507;-63
2022/07/01 09:31:33;;;;;;;33.45;7.22;;;19.10;99.90;;;;;;5026241;28;20059;-64
2022/07/01 09:34:04;;;;;;;12.05;6.75;;;19.40;99.90;;;;;;5025143;28;20030;-64
2022/07/01 09:36:30;;;;;;;10.77;6.60;;;19.70;99.90;;;;;;5033247;28;20048;-63
2022/07/01 09:38:55;;;;;;;9.60;6.75;;;19.90;99.90;;;;;;5023753;28;20038;-63
2022/07/01 09:41:23;;;;;;;14.07;6.30;;;20.00;99.90;;;;;;5029951;28;20542;-64
2022/07/01 09:43:49;;;;;;;12.32;6.78;;;20.10;99.90;;;;;;5029837;28;20049;-65
2022/07/01 09:46:15;;;;;;;11.50;6.60;;;20.00;99.90;;;;;;5029422;28;20045;-65
2022/07/01 09:48:40;;;;;;;13.55;6.38;;;20.00;99.90;;;;;;5031877;28;20044;-63
2022/07/01 09:51:08;;;;;;;10.50;5.32;;;20.00;99.90;;;;;;5027820;28;20476;-63
2022/07/01 09:53:33;;;;;;;8.88;5.15;;;20.20;99.90;;;;;;5027958;28;20611;-64
2022/07/01 09:55:59;;;;;;;10.98;5.85;;;20.30;99.90;;;;;;5023031;28;20128;-66
2022/07/01 09:58:26;;;;;;;9.70;5.47;;;20.40;99.90;;;;;;5039957;28;20132;-67
2022/07/01 10:00:55;;;;;;;11.93;6.13;;;20.50;99.90;;;;;;5032719;28;20061;-64
2022/07/01 10:03:22;;;;;;;9.85;5.32;;;20.60;99.90;;;;;;5022538;28;20029;-63
2022/07/01 10:05:55;;;;;;;9.70;5.28;;;20.70;99.90;;;;;;5027072;28;20072;-65
2022/07/01 10:08:48;;;;;;;9.57;4.53;;;20.60;99.90;;;;;;5034772;28;20562;-63
2022/07/01 10:12:02;;;;;;;8.15;4.57;;;20.60;99.90;;;;;;5027527;28;20507;-63
2022/07/01 10:14:29;;;;;;;9.13;4.60;;;20.50;99.90;;;;;;5028489;28;20116;-63
2022/07/01 10:16:55;;;;;;;7.72;4.22;;;20.70;99.90;;;;;;5031021;28;20045;-63
2022/07/01 10:19:22;;;;;;;8.15;4.45;;;20.80;99.90;;;;;;5024323;28;20034;-63
2022/07/01 10:21:48;;;;;;;5.72;4.13;;;21.10;99.90;;;;;;5025919;28;20492;-64
2022/07/01 10:24:16;;;;;;;7.00;3.60;;;21.30;99.90;;;;;;5024863;28;20044;-66
2022/07/01 10:26:41;;;;;;;8.02;3.80;;;21.50;99.90;;;;;;5024845;28;20512;-63
2022/07/01 10:29:25;;;;;;;7.47;3.85;;;21.60;99.90;;;;;;5035338;28;20073;-64
2022/07/01 10:31:51;;;;;;;7.57;3.75;;;21.50;99.00;;;;;;5020525;28;20049;-63
2022/07/01 10:34:18;;;;;;;6.72;3.35;;;21.40;99.30;;;;;;5020293;28;20033;-64
2022/07/01 10:36:44;;;;;;;6.45;3.22;;;21.20;98.90;;;;;;5012115;28;20512;-64
2022/07/01 10:39:16;;;;;;;5.80;2.80;;;21.10;99.30;;;;;;5025667;28;20052;-64
2022/07/01 10:41:42;;;;;;;7.03;2.80;;;21.10;98.80;;;;;;5018750;28;20046;-63
2022/07/01 10:44:12;;;;;;;7.20;3.10;;;21.20;99.00;;;;;;5024462;28;20049;-64
2022/07/01 10:47:03;;;;;;;7.25;2.92;;;21.30;98.60;;;;;;5026565;28;20037;-64
2022/07/01 10:49:41;;;;;;;5.45;2.60;;;21.40;97.90;;;;;;5027493;28;20064;-64
2022/07/01 10:52:08;;;;;;;5.57;2.25;;;21.40;97.10;;;;;;5020739;28;20144;-64
2022/07/01 10:54:36;;;;;;;5.32;3.00;;;21.30;97.70;;;;;;5028504;28;20091;-64
2022/07/01 10:57:22;;;;;;;6.55;2.90;;;21.30;98.10;;;;;;5026908;28;20033;-64
2022/07/01 10:59:50;;;;;;;4.45;2.30;;;21.60;97.90;;;;;;5020546;28;20053;-64
2022/07/01 11:02:19;;;;;;;5.82;2.40;;;21.70;97.60;;;;;;5011211;28;20046;-64
2022/07/01 11:04:45;;;;;;;7.68;2.78;;;21.80;97.60;;;;;;5030484;28;20053;-67
2022/07/01 11:07:11;;;;;;;4.82;2.15;;;22.10;97.50;;;;;;5029150;28;20037;-67
2022/07/01 11:09:37;;;;;;;5.03;2.08;;;22.20;97.60;;;;;;5016908;28;20515;-65
2022/07/01 11:12:05;;;;;;;6.38;2.25;;;22.50;97.70;;;;;;5023825;28;20037;-67
2022/07/01 11:14:37;;;;;;;4.13;1.75;;;22.70;97.20;;;;;;5024136;28;20045;-64
2022/07/01 11:17:03;;;;;;;5.00;1.70;;;22.80;95.40;;;;;;5018176;28;20041;-64
2022/07/01 11:19:29;;;;;;;5.82;1.73;;;22.50;93.10;;;;;;5011071;28;20409;-65
2022/07/01 11:21:55;;;;;;;6.43;2.25;;;22.20;93.50;;;;;;5032524;28;20247;-64
2022/07/01 11:24:24;;;;;;;6.03;1.85;;;21.90;93.80;;;;;;5034966;28;20049;-64
2022/07/01 11:26:50;;;;;;;6.97;2.10;;;21.60;93.70;;;;;;5026448;28;20044;-64
2022/07/01 11:29:26;;;;;;;4.15;1.80;;;21.30;94.00;;;;;;5027537;28;20037;-64
2022/07/01 11:31:52;;;;;;;3.75;1.60;;;21.10;94.30;;;;;;5018893;28;20680;-64
2022/07/01 11:34:18;;;;;;;6.10;2.00;;;20.90;95.20;;;;;;5021774;28;20051;-64
2022/07/01 11:39:33;;;;;;;5.25;1.83;;;20.70;95.90;;;;;;5029178;28;20125;-64
2022/07/01 11:42:06;;;;;;;7.00;2.42;;;20.80;96.60;;;;;;5027254;28;20551;-65
2022/07/01 11:44:36;;;;;;;6.03;2.03;;;21.00;96.80;;;;;;5026680;28;20045;-64
2022/07/01 11:47:08;;;;;;;3.05;1.20;;;21.20;96.80;;;;;;5022043;28;20042;-66
2022/07/01 11:49:34;;;;;;;;;;;21.40;94.10;;;;;;5020565;28;20554;-63
2022/07/01 11:52:02;;;;;;;3.70;1.23;;;21.40;92.80;;;;;;5030330;28;20080;-64
2022/07/01 11:54:28;;;;;;;3.10;1.42;;;21.30;93.00;;;;;;5020174;28;20037;-64
2022/07/01 11:56:54;;;;;;;3.67;1.75;;;21.40;94.10;;;;;;5026885;28;20048;-64
2022/07/01 11:59:20;;;;;;;6.07;1.90;;;21.50;94.30;;;;;;5014366;28;20276;-64
2022/07/01 12:01:55;;;;;;;10.05;1.60;;;21.50;93.50;;;;;;5023013;28;20099;-64
2022/07/01 12:04:22;;;;;;;5.32;1.50;;;21.30;93.60;;;;;;5024888;28;20083;-64
2022/07/01 12:06:50;;;;;;;5.30;1.48;;;21.20;93.40;;;;;;5021310;28;20392;-63
2022/07/01 12:09:20;;;;;;;7.30;1.80;;;21.00;93.80;;;;;;5021595;28;20042;-64
2022/07/01 12:11:48;;;;;;;4.68;1.50;;;20.90;93.80;;;;;;5028915;28;20442;-64
2022/07/01 12:14:25;;;;;;;4.47;1.90;;;20.80;94.50;;;;;;5021051;28;20046;-63
2022/07/01 12:16:57;;;;;;;9.07;1.70;;;20.70;95.20;;;;;;5023628;28;20080;-64
2022/07/01 12:19:39;;;;;;;6.53;1.40;;;20.80;95.20;;;;;;5019064;28;20041;-64
2022/07/01 12:22:15;;;;;;;4.65;1.65;;;20.90;95.30;;;;;;5020968;28;20038;-67
2022/07/01 12:24:42;;;;;;;4.30;1.40;;;21.20;94.20;;;;;;5030103;28;20316;-64
2022/07/01 12:27:08;;;;;;;4.65;1.58;;;21.40;93.30;;;;;;5012514;28;20038;-64
2022/07/01 12:29:46;;;;;;;4.38;1.63;;;21.30;92.90;;;;;;5018831;28;20129;-64
2022/07/01 12:32:13;;;;;;;3.90;1.50;;;21.20;93.20;;;;;;5015885;28;20069;-64
2022/07/01 12:34:47;;;;;;;6.38;1.88;;;21.00;94.10;;;;;;5024806;28;20083;-64
2022/07/01 12:37:15;;;;;;;5.28;1.60;;;20.90;94.50;;;;;;5024615;28;20377;-64
2022/07/01 12:39:52;;;;;;;9.63;1.95;;;20.80;94.80;;;;;;5021819;28;20120;-64
2022/07/01 12:42:22;;;;;;;4.57;1.48;;;20.60;94.90;;;;;;5024621;28;21211;-64
2022/07/01 12:44:48;;;;;;;5.45;1.70;;;20.50;94.90;;;;;;5013191;28;20041;-64
2022/07/01 12:47:38;;;;;;;6.13;1.80;;;20.40;95.30;;;;;;5020240;28;20049;-64
2022/07/01 12:50:11;;;;;;;6.15;1.60;;;20.40;95.90;;;;;;5018787;28;20136;-64
2022/07/01 12:52:38;;;;;;;6.72;2.00;;;20.30;95.20;;;;;;5027109;28;20069;-63
2022/07/01 12:55:18;;;;;;;4.53;1.70;;;20.30;95.00;;;;;;5027773;28;20044;-65